createdAt,value
2024-02-13T00:02:21.335Z,7.00
2024-02-13T00:04:53.152Z,7.70
2024-02-13T00:07:24.909Z,9.00
2024-02-13T00:09:56.686Z,11.00
2024-02-13T00:12:30.847Z,10.80
2024-02-13T00:15:05.645Z,9.60
2024-02-13T00:17:42.228Z,7.90
2024-02-13T00:20:16.384Z,9.10
2024-02-13T00:22:49.144Z,9.60
2024-02-13T00:25:21.077Z,9.30
2024-02-13T00:27:52.876Z,17.10
2024-02-13T00:30:24.820Z,13.80
2024-02-13T00:32:58.703Z,10.60
2024-02-13T00:35:30.691Z,9.90
2024-02-13T00:38:02.679Z,10.60
2024-02-13T00:40:34.450Z,9.70
2024-02-13T00:43:06.845Z,10.30
2024-02-13T00:45:38.599Z,9.60
2024-02-13T00:48:11.671Z,10.10
2024-02-13T00:50:45.678Z,10.20
2024-02-13T00:53:17.882Z,10.60
2024-02-13T00:55:50.736Z,8.00
2024-02-13T00:58:22.499Z,8.50
2024-02-13T01:00:55.277Z,7.70
2024-02-13T01:03:27.145Z,9.40
2024-02-13T01:05:59.223Z,10.40
2024-02-13T01:08:31.103Z,11.20
2024-02-13T01:11:03.173Z,12.00
2024-02-13T01:13:35.033Z,11.50
2024-02-13T01:16:08.269Z,9.10
2024-02-13T01:18:40.154Z,9.00
2024-02-13T01:21:15.388Z,10.00
2024-02-13T01:23:48.207Z,10.00
2024-02-13T01:26:20.547Z,9.30
2024-02-13T01:28:52.346Z,8.50
2024-02-13T01:31:24.264Z,7.40
2024-02-13T01:33:56.178Z,8.30
2024-02-13T01:36:28.944Z,7.80
2024-02-13T01:39:04.195Z,7.90
2024-02-13T01:41:36.105Z,7.50
2024-02-13T01:44:08.104Z,7.10
2024-02-13T01:46:40.816Z,6.80
2024-02-13T01:49:13.355Z,7.10
2024-02-13T01:51:45.258Z,7.50
2024-02-13T01:54:17.374Z,6.50
2024-02-13T01:56:50.141Z,7.20
2024-02-13T01:59:23.631Z,7.40
2024-02-13T02:01:56.723Z,7.20
2024-02-13T02:04:31.258Z,7.00
2024-02-13T02:07:04.928Z,7.30
2024-02-13T02:09:37.065Z,6.90
2024-02-13T02:12:10.882Z,6.80
2024-02-13T02:14:44.606Z,6.90
2024-02-13T02:17:16.582Z,6.50
2024-02-13T02:19:48.395Z,7.70
2024-02-13T02:22:20.269Z,6.90
2024-02-13T02:24:52.016Z,6.60
2024-02-13T02:27:23.802Z,6.80
2024-02-13T02:29:55.612Z,6.40
2024-02-13T02:32:29.336Z,6.80
2024-02-13T02:35:01.274Z,6.60
2024-02-13T02:37:36.001Z,6.10
2024-02-13T02:40:09.663Z,6.50
2024-02-13T02:42:41.395Z,7.10
2024-02-13T02:45:13.441Z,7.40
2024-02-13T02:47:45.552Z,7.00
2024-02-13T02:50:17.605Z,6.90
2024-02-13T02:52:49.392Z,7.20
2024-02-13T02:55:22.577Z,7.30
2024-02-13T02:57:54.828Z,8.00
2024-02-13T03:00:26.961Z,7.60
2024-02-13T03:02:58.924Z,7.50
2024-02-13T03:05:31.239Z,7.90
2024-02-13T03:08:06.300Z,8.00
2024-02-13T03:10:38.143Z,7.10
2024-02-13T03:13:10.148Z,7.90
2024-02-13T03:15:42.253Z,7.00
2024-02-13T03:18:14.586Z,8.00
2024-02-13T03:20:47.432Z,8.00
2024-02-13T03:23:19.238Z,8.20
2024-02-13T03:25:51.080Z,8.50
2024-02-13T03:28:23.202Z,7.50
2024-02-13T03:30:58.039Z,7.50
2024-02-13T03:33:29.998Z,8.30
2024-02-13T03:36:02.114Z,7.30
2024-02-13T03:38:33.941Z,7.80
2024-02-13T03:41:05.869Z,8.50
2024-02-13T03:43:38.286Z,6.90
2024-02-13T03:46:10.101Z,7.20
2024-02-13T03:48:42.150Z,7.10
2024-02-13T03:51:14.429Z,7.10
2024-02-13T03:53:46.442Z,7.10
2024-02-13T03:56:18.343Z,8.90
2024-02-13T03:58:50.204Z,7.70
2024-02-13T04:01:21.991Z,8.30
2024-02-13T04:03:53.896Z,8.20
2024-02-13T04:06:26.557Z,7.90
2024-02-13T04:08:58.340Z,7.60
2024-02-13T04:11:30.289Z,8.60
2024-02-13T04:14:02.082Z,7.40
2024-02-13T04:16:33.848Z,7.70
2024-02-13T04:19:05.691Z,7.80
2024-02-13T04:21:39.263Z,7.10
2024-02-13T04:24:11.460Z,7.10
2024-02-13T04:26:44.035Z,7.60
2024-02-13T04:29:15.960Z,7.10
2024-02-13T04:31:47.791Z,7.80
2024-02-13T04:34:19.682Z,7.70
2024-02-13T04:36:51.678Z,7.10
2024-02-13T04:39:23.413Z,7.60
2024-02-13T04:41:55.289Z,8.00
2024-02-13T04:44:27.140Z,8.40
2024-02-13T04:46:58.905Z,8.60
2024-02-13T04:49:30.764Z,7.90
2024-02-13T04:52:02.656Z,8.50
2024-02-13T04:54:34.528Z,8.00
2024-02-13T04:57:06.806Z,9.10
2024-02-13T04:59:49.426Z,8.10
2024-02-13T05:02:22.780Z,8.90
2024-02-13T05:05:12.044Z,9.50
2024-02-13T05:07:46.040Z,10.10
2024-02-13T05:10:17.842Z,10.90
2024-02-13T05:12:49.631Z,10.20
2024-02-13T05:15:22.674Z,9.90
2024-02-13T05:17:54.588Z,10.40
2024-02-13T05:20:26.524Z,10.30
2024-02-13T05:23:00.146Z,10.80
2024-02-13T05:25:32.409Z,10.80
2024-02-13T05:28:04.280Z,11.00
2024-02-13T05:30:36.774Z,9.40
2024-02-13T05:33:08.968Z,10.20
2024-02-13T05:35:42.664Z,9.20
2024-02-13T05:38:15.224Z,9.00
2024-02-13T05:40:46.984Z,8.60
2024-02-13T05:43:18.775Z,9.50
2024-02-13T05:45:50.676Z,8.60
2024-02-13T05:48:23.397Z,9.10
2024-02-13T05:50:55.913Z,8.20
2024-02-13T05:53:30.079Z,8.70
2024-02-13T05:56:02.212Z,8.40
2024-02-13T05:58:35.024Z,8.00
2024-02-13T06:01:08.738Z,8.00
2024-02-13T06:03:40.754Z,8.10
2024-02-13T06:06:12.715Z,7.90
2024-02-13T06:08:44.611Z,9.00
2024-02-13T06:11:16.818Z,7.40
2024-02-13T06:13:50.545Z,7.30
2024-02-13T06:16:22.313Z,7.90
2024-02-13T06:18:54.182Z,8.30
2024-02-13T06:21:27.648Z,8.10
2024-02-13T06:24:00.068Z,9.50
2024-02-13T06:26:33.527Z,10.00
2024-02-13T06:29:07.923Z,9.20
2024-02-13T06:31:39.812Z,7.70
2024-02-13T06:34:11.833Z,7.70
2024-02-13T06:36:43.625Z,7.60
2024-02-13T06:39:15.540Z,7.00
2024-02-13T06:41:47.502Z,6.60
2024-02-13T06:44:23.416Z,6.70
2024-02-13T06:46:55.562Z,6.00
2024-02-13T06:49:30.846Z,7.00
2024-02-13T06:52:05.078Z,5.80
2024-02-13T06:54:37.038Z,5.50
2024-02-13T06:57:09.102Z,6.90
2024-02-13T06:59:41.901Z,5.80
2024-02-13T07:02:13.771Z,5.50
2024-02-13T07:04:45.606Z,7.30
2024-02-13T07:07:28.867Z,7.10
2024-02-13T07:10:12.416Z,7.00
2024-02-13T07:12:44.778Z,5.70
2024-02-13T07:15:17.215Z,5.90
2024-02-13T07:17:56.763Z,7.20
2024-02-13T07:20:33.041Z,5.50
2024-02-13T07:23:05.287Z,6.20
2024-02-13T07:25:37.099Z,6.10
2024-02-13T07:28:09.359Z,6.30
2024-02-13T07:30:41.287Z,6.80
2024-02-13T07:33:13.528Z,6.80
2024-02-13T07:35:45.531Z,6.20
2024-02-13T07:38:17.711Z,7.50
2024-02-13T07:40:49.658Z,6.60
2024-02-13T07:43:21.465Z,7.20
2024-02-13T07:45:53.243Z,6.50
2024-02-13T07:48:25.325Z,6.50
2024-02-13T07:50:59.025Z,6.90
2024-02-13T07:53:31.869Z,6.60
2024-02-13T07:56:04.887Z,7.10
2024-02-13T07:58:36.726Z,7.10
2024-02-13T08:01:11.061Z,6.40
2024-02-13T08:03:43.490Z,6.60
2024-02-13T08:06:15.434Z,6.50
2024-02-13T08:08:47.871Z,5.50
2024-02-13T08:11:21.886Z,5.90
2024-02-13T08:13:55.896Z,5.40
2024-02-13T08:16:30.484Z,6.00
2024-02-13T08:19:02.301Z,6.10
2024-02-13T08:21:34.099Z,4.50
2024-02-13T08:24:06.314Z,5.20
2024-02-13T08:26:38.282Z,5.30
2024-02-13T08:29:10.533Z,5.70
2024-02-13T08:31:42.547Z,5.10
2024-02-13T08:34:14.711Z,5.00
2024-02-13T08:36:46.667Z,5.30
2024-02-13T08:39:18.561Z,4.40
2024-02-13T08:41:50.398Z,5.30
2024-02-13T08:44:22.651Z,5.20
2024-02-13T08:46:54.951Z,5.50
2024-02-13T08:49:26.979Z,5.90
2024-02-13T08:51:58.970Z,4.50
2024-02-13T08:54:30.761Z,3.90
2024-02-13T08:57:02.577Z,4.20
2024-02-13T08:59:34.503Z,4.10
2024-02-13T09:02:09.888Z,4.40
2024-02-13T09:04:41.733Z,4.10
2024-02-13T09:07:14.020Z,4.70
2024-02-13T09:09:46.217Z,5.40
2024-02-13T09:12:18.135Z,5.00
2024-02-13T09:14:49.901Z,4.00
2024-02-13T09:17:21.826Z,3.70
2024-02-13T09:19:54.094Z,3.40
2024-02-13T09:22:26.114Z,4.00
2024-02-13T09:24:59.016Z,4.50
2024-02-13T09:27:31.048Z,4.40
2024-02-13T09:30:02.977Z,4.20
2024-02-13T09:32:36.924Z,4.20
2024-02-13T09:35:10.269Z,4.00
2024-02-13T09:37:44.595Z,4.10
2024-02-13T09:40:17.406Z,4.80
2024-02-13T09:42:50.432Z,5.30
2024-02-13T09:45:22.768Z,3.60
2024-02-13T09:48:00.335Z,4.70
2024-02-13T09:50:38.517Z,5.30
2024-02-13T09:53:18.800Z,4.30
2024-02-13T09:55:50.705Z,4.80
2024-02-13T09:58:23.531Z,4.20
2024-02-13T10:00:59.739Z,3.40
2024-02-13T10:03:33.334Z,3.80
2024-02-13T10:06:05.578Z,3.90
2024-02-13T10:08:40.385Z,3.80
2024-02-13T10:11:15.538Z,2.70
2024-02-13T10:13:48.686Z,3.20
2024-02-13T10:16:25.039Z,3.10
2024-02-13T10:18:59.597Z,3.80
2024-02-13T10:21:31.950Z,2.90
2024-02-13T10:24:13.015Z,2.50
2024-02-13T10:26:45.007Z,2.20
2024-02-13T10:29:16.921Z,3.20
2024-02-13T10:31:48.766Z,3.30
2024-02-13T10:34:23.196Z,2.70
2024-02-13T10:36:57.061Z,2.10
2024-02-13T10:39:31.223Z,2.10
2024-02-13T10:42:07.006Z,2.60
2024-02-13T10:44:44.848Z,2.80
2024-02-13T10:47:20.752Z,2.50
2024-02-13T10:49:55.837Z,2.50
2024-02-13T10:52:28.560Z,2.50
2024-02-13T10:55:04.872Z,2.70
2024-02-13T10:57:39.095Z,2.40
2024-02-13T11:00:15.963Z,2.70
2024-02-13T11:02:50.050Z,2.60
2024-02-13T11:05:26.449Z,3.00
2024-02-13T11:07:58.517Z,2.30
2024-02-13T11:10:35.780Z,1.70
2024-02-13T11:13:10.596Z,1.30
2024-02-13T11:15:42.884Z,1.30
2024-02-13T11:18:15.788Z,1.50
2024-02-13T11:20:52.024Z,1.80
2024-02-13T11:23:31.128Z,1.80
2024-02-13T11:26:03.793Z,1.50
2024-02-13T11:28:42.488Z,1.70
2024-02-13T11:31:18.150Z,2.50
2024-02-13T11:34:07.198Z,3.40
2024-02-13T11:36:39.532Z,3.60
2024-02-13T11:39:11.759Z,3.20
2024-02-13T11:41:43.686Z,2.80
2024-02-13T11:44:17.572Z,3.00
2024-02-13T11:46:55.544Z,3.50
2024-02-13T11:49:28.083Z,3.40
2024-02-13T11:52:00.279Z,4.10
2024-02-13T11:54:35.461Z,4.20
2024-02-13T11:57:07.779Z,4.00
2024-02-13T11:59:41.770Z,5.10
2024-02-13T12:02:16.639Z,5.10
2024-02-13T12:04:50.090Z,5.40
2024-02-13T12:07:23.142Z,4.70
2024-02-13T12:09:55.093Z,4.80
2024-02-13T12:12:27.219Z,4.30
2024-02-13T12:14:59.496Z,4.90
2024-02-13T12:17:33.602Z,5.20
2024-02-13T12:20:13.315Z,4.90
2024-02-13T12:22:46.828Z,5.50
2024-02-13T12:25:22.353Z,5.80
2024-02-13T12:28:01.528Z,5.80
2024-02-13T12:30:34.837Z,6.40
2024-02-13T12:33:10.247Z,6.20
2024-02-13T12:35:45.994Z,6.40
2024-02-13T12:38:20.397Z,6.10
2024-02-13T12:40:52.888Z,6.10
2024-02-13T12:43:28.363Z,6.10
2024-02-13T12:46:03.610Z,6.00
2024-02-13T12:48:40.681Z,5.70
2024-02-13T12:51:13.633Z,5.00
2024-02-13T12:53:47.115Z,4.70
2024-02-13T12:56:19.064Z,4.50
2024-02-13T12:58:52.987Z,3.50
2024-02-13T13:01:25.978Z,2.70
2024-02-13T13:03:59.345Z,2.50
2024-02-13T13:06:34.499Z,2.50
2024-02-13T13:09:20.108Z,3.30
2024-02-13T13:11:59.983Z,3.20
2024-02-13T13:14:33.103Z,4.30
2024-02-13T13:17:05.160Z,3.90
2024-02-13T13:19:38.743Z,4.30
2024-02-13T13:22:13.360Z,4.80
2024-02-13T13:24:45.346Z,5.40
2024-02-13T13:27:19.570Z,4.50
2024-02-13T13:29:51.439Z,5.10
2024-02-13T13:32:23.283Z,4.50
2024-02-13T13:34:55.226Z,5.10
2024-02-13T13:37:29.958Z,5.40
2024-02-13T13:40:01.741Z,5.30
2024-02-13T13:42:36.933Z,5.50
2024-02-13T13:45:11.434Z,5.20
2024-02-13T13:47:43.244Z,5.90
2024-02-13T13:50:18.862Z,5.60
2024-02-13T13:52:52.122Z,5.20
2024-02-13T13:55:24.124Z,6.40
2024-02-13T13:57:56.124Z,6.50
2024-02-13T14:00:31.147Z,6.10
2024-02-13T14:03:03.427Z,6.30
2024-02-13T14:05:36.754Z,4.50
2024-02-13T14:08:10.673Z,5.40
2024-02-13T14:10:44.593Z,3.80
2024-02-13T14:13:18.247Z,5.40
2024-02-13T14:15:50.841Z,5.50
2024-02-13T14:18:22.805Z,6.20
2024-02-13T14:20:54.907Z,6.00
2024-02-13T14:23:28.455Z,8.20
2024-02-13T14:26:00.356Z,7.00
2024-02-13T14:28:32.230Z,6.70
2024-02-13T14:31:04.292Z,5.20
2024-02-13T14:33:36.827Z,6.00
2024-02-13T14:36:09.368Z,6.00
2024-02-13T14:38:42.173Z,5.90
2024-02-13T14:41:16.392Z,5.80
2024-02-13T14:43:49.112Z,4.80
2024-02-13T14:46:20.909Z,5.10
2024-02-13T14:48:53.239Z,6.30
2024-02-13T14:51:25.311Z,5.10
2024-02-13T14:53:57.324Z,5.30
2024-02-13T14:56:30.295Z,5.50
2024-02-13T14:59:02.154Z,5.70
2024-02-13T15:01:34.110Z,6.50
2024-02-13T15:04:07.743Z,7.00
2024-02-13T15:06:39.840Z,6.80
2024-02-13T15:09:12.199Z,6.20
2024-02-13T15:11:44.105Z,6.50
2024-02-13T15:14:15.975Z,7.50
2024-02-13T15:16:49.582Z,8.20
2024-02-13T15:19:22.433Z,7.20
2024-02-13T15:21:54.663Z,8.20
2024-02-13T15:24:26.537Z,6.80
2024-02-13T15:26:59.980Z,6.00
2024-02-13T15:29:33.497Z,5.80
2024-02-13T15:32:06.040Z,8.40
2024-02-13T15:34:42.381Z,13.90
2024-02-13T15:37:34.246Z,12.50
2024-02-13T15:40:24.771Z,7.60
2024-02-13T15:43:14.144Z,6.50
2024-02-13T15:46:03.957Z,6.70
2024-02-13T15:48:36.164Z,6.30
2024-02-13T15:51:10.517Z,5.80
2024-02-13T15:53:42.800Z,7.00
2024-02-13T15:56:15.245Z,6.60
2024-02-13T15:58:47.011Z,5.80
2024-02-13T16:01:19.030Z,6.10
2024-02-13T16:03:50.828Z,5.70
2024-02-13T16:06:22.917Z,5.30
2024-02-13T16:08:54.867Z,5.50
2024-02-13T16:11:26.872Z,6.00
2024-02-13T16:14:00.115Z,6.00
2024-02-13T16:16:31.951Z,6.40
2024-02-13T16:19:04.648Z,7.40
2024-02-13T16:21:36.557Z,8.50
2024-02-13T16:24:10.134Z,8.60
2024-02-13T16:26:42.187Z,9.00
2024-02-13T16:29:13.989Z,10.20
2024-02-13T16:31:45.754Z,10.80
2024-02-13T16:34:19.781Z,12.20
2024-02-13T16:36:51.719Z,13.00
2024-02-13T16:39:23.870Z,11.70
2024-02-13T16:41:59.719Z,8.90
2024-02-13T16:44:31.676Z,9.10
2024-02-13T16:47:05.296Z,9.80
2024-02-13T16:49:37.321Z,9.40
2024-02-13T16:52:09.545Z,12.90
2024-02-13T16:54:42.120Z,15.80
2024-02-13T16:57:14.496Z,14.50
2024-02-13T16:59:46.928Z,14.50
2024-02-13T17:02:18.847Z,12.80
2024-02-13T17:04:50.670Z,11.70
2024-02-13T17:07:22.682Z,12.50
2024-02-13T17:09:54.601Z,15.40
2024-02-13T17:12:27.156Z,19.00
2024-02-13T17:14:59.180Z,17.00
2024-02-13T17:17:31.139Z,16.20
2024-02-13T17:20:05.075Z,14.90
2024-02-13T17:22:36.949Z,14.50
2024-02-13T17:25:12.414Z,16.30
2024-02-13T17:27:44.267Z,16.30
2024-02-13T17:30:17.156Z,18.20
2024-02-13T17:32:50.391Z,17.40
2024-02-13T17:35:22.408Z,14.90
2024-02-13T17:37:54.172Z,18.20
2024-02-13T17:40:31.750Z,26.10
2024-02-13T17:43:03.636Z,19.40
2024-02-13T17:45:35.829Z,18.60
2024-02-13T17:48:11.106Z,22.30
2024-02-13T17:50:43.047Z,18.40
2024-02-13T17:53:15.878Z,16.40
2024-02-13T17:55:48.026Z,14.50
2024-02-13T17:58:19.886Z,12.90
2024-02-13T18:00:51.702Z,14.70
2024-02-13T18:03:23.653Z,14.20
2024-02-13T18:05:55.667Z,16.30
2024-02-13T18:08:27.493Z,12.60
2024-02-13T18:10:59.549Z,12.70
2024-02-13T18:13:31.845Z,11.30
2024-02-13T18:16:04.802Z,32.30
2024-02-13T18:18:36.733Z,45.60
2024-02-13T18:21:09.266Z,46.80
2024-02-13T18:23:41.106Z,34.60
2024-02-13T18:26:12.919Z,25.00
2024-02-13T18:28:47.093Z,25.30
2024-02-13T18:31:19.980Z,28.60
2024-02-13T18:33:52.590Z,20.70
2024-02-13T18:36:25.279Z,12.70
2024-02-13T18:38:57.235Z,13.00
2024-02-13T18:41:29.521Z,13.70
2024-02-13T18:44:01.468Z,15.50
2024-02-13T18:46:33.391Z,15.20
2024-02-13T18:49:05.335Z,13.20
2024-02-13T18:51:37.249Z,14.20
2024-02-13T18:54:09.172Z,15.10
2024-02-13T18:56:42.243Z,17.30
2024-02-13T18:59:14.350Z,21.70
2024-02-13T19:01:46.657Z,30.00
2024-02-13T19:04:18.673Z,23.20
2024-02-13T19:06:50.974Z,25.70
2024-02-13T19:09:22.915Z,33.00
2024-02-13T19:11:54.746Z,23.20
2024-02-13T19:14:26.828Z,25.40
2024-02-13T19:16:59.496Z,29.70
2024-02-13T19:19:31.509Z,33.10
2024-02-13T19:22:04.415Z,32.80
2024-02-13T19:24:36.856Z,24.90
2024-02-13T19:27:11.050Z,27.90
2024-02-13T19:29:43.193Z,22.60
2024-02-13T19:32:16.500Z,25.80
2024-02-13T19:34:48.365Z,23.50
2024-02-13T19:37:20.446Z,25.10
2024-02-13T19:39:52.244Z,26.80
2024-02-13T19:42:23.993Z,32.90
2024-02-13T19:44:55.883Z,29.20
2024-02-13T19:47:27.933Z,19.30
2024-02-13T19:50:00.194Z,25.40
2024-02-13T19:52:34.349Z,32.00
2024-02-13T19:55:07.103Z,44.70
2024-02-13T19:57:39.011Z,73.10
2024-02-13T20:00:12.522Z,60.20
2024-02-13T20:02:44.529Z,37.80
2024-02-13T20:05:18.281Z,32.60
2024-02-13T20:07:50.630Z,27.70
2024-02-13T20:10:23.566Z,24.80
2024-02-13T20:12:56.389Z,21.10
2024-02-13T20:15:28.382Z,20.50
2024-02-13T20:18:01.198Z,17.40
2024-02-13T20:20:33.196Z,17.60
2024-02-13T20:23:05.169Z,18.30
2024-02-13T20:25:37.036Z,19.30
2024-02-13T20:28:10.725Z,19.50
2024-02-13T20:30:42.584Z,21.50
2024-02-13T20:33:18.411Z,20.10
2024-02-13T20:36:02.162Z,20.90
2024-02-13T20:38:40.047Z,21.60
2024-02-13T20:41:12.413Z,22.20
2024-02-13T20:43:45.097Z,25.10
2024-02-13T20:46:19.755Z,24.90
2024-02-13T20:48:51.771Z,27.10
2024-02-13T20:51:23.662Z,29.90
2024-02-13T20:53:55.487Z,28.30
2024-02-13T20:56:27.359Z,28.20
2024-02-13T20:59:00.915Z,25.10
2024-02-13T21:01:39.515Z,21.80
2024-02-13T21:04:11.640Z,20.70
2024-02-13T21:06:44.851Z,20.80
2024-02-13T21:09:17.756Z,19.70
2024-02-13T21:11:49.689Z,29.70
2024-02-13T21:14:21.909Z,20.30
2024-02-13T21:16:53.709Z,20.20
2024-02-13T21:19:25.603Z,22.90
2024-02-13T21:22:14.676Z,20.30
2024-02-13T21:24:47.186Z,18.10
2024-02-13T21:27:19.098Z,19.10
2024-02-13T21:29:51.554Z,21.00
2024-02-13T21:32:23.680Z,21.90
2024-02-13T21:34:55.565Z,22.20
2024-02-13T21:37:27.378Z,23.70
2024-02-13T21:39:59.160Z,20.20
2024-02-13T21:42:31.262Z,24.20
2024-02-13T21:45:03.631Z,60.80
2024-02-13T21:47:36.421Z,64.30
2024-02-13T21:50:09.789Z,57.70
2024-02-13T21:52:42.056Z,37.90
2024-02-13T21:55:14.025Z,23.10
2024-02-13T21:57:45.794Z,33.90
2024-02-13T22:00:19.426Z,25.70
2024-02-13T22:02:51.355Z,20.10
2024-02-13T22:05:23.631Z,22.20
2024-02-13T22:07:55.472Z,24.10
2024-02-13T22:10:27.272Z,27.20
2024-02-13T22:12:59.076Z,25.20
2024-02-13T22:15:30.926Z,27.10
2024-02-13T22:18:03.463Z,32.90
2024-02-13T22:20:38.199Z,33.50
2024-02-13T22:23:11.199Z,28.90
2024-02-13T22:25:43.929Z,37.40
2024-02-13T22:28:17.320Z,41.70
2024-02-13T22:30:49.111Z,33.80
2024-02-13T22:33:22.011Z,52.30
2024-02-13T22:35:55.380Z,40.10
2024-02-13T22:38:27.344Z,44.70
2024-02-13T22:40:59.098Z,49.90
2024-02-13T22:43:33.220Z,47.70
2024-02-13T22:46:05.770Z,41.20
2024-02-13T22:48:37.767Z,35.90
2024-02-13T22:51:09.665Z,33.50
2024-02-13T22:53:41.691Z,30.90
2024-02-13T22:56:13.510Z,27.60
2024-02-13T22:58:45.462Z,27.30
2024-02-13T23:01:17.268Z,25.40
2024-02-13T23:03:50.861Z,29.60
2024-02-13T23:06:22.967Z,24.20
2024-02-13T23:08:54.887Z,23.30
2024-02-13T23:11:26.839Z,24.00
2024-02-13T23:13:58.754Z,28.30
2024-02-13T23:16:30.894Z,26.40
2024-02-13T23:19:05.614Z,25.40
2024-02-13T23:21:38.056Z,25.30
2024-02-13T23:24:11.775Z,25.30
2024-02-13T23:26:43.734Z,25.50
2024-02-13T23:29:15.975Z,24.10
2024-02-13T23:31:47.778Z,36.30
2024-02-13T23:34:19.792Z,25.40
2024-02-13T23:36:51.609Z,25.40
2024-02-13T23:39:23.390Z,26.80
2024-02-13T23:41:55.216Z,28.60
2024-02-13T23:44:27.793Z,27.40
2024-02-13T23:46:59.827Z,26.80
2024-02-13T23:49:31.753Z,28.70
2024-02-13T23:52:03.915Z,26.30
2024-02-13T23:54:36.567Z,32.60
2024-02-13T23:57:10.659Z,33.40
2024-02-13T23:59:43.107Z,33.10
